createdAt,value
2022-11-14T10:40:20.165Z,0.88
2022-11-14T10:43:19.339Z,1.15
2022-11-14T10:46:18.752Z,1.27
2022-11-14T10:49:16.219Z,0.68
2022-11-14T10:52:12.848Z,0.60
2022-11-14T10:55:03.290Z,0.52
2022-11-14T10:57:48.614Z,1.00
2022-11-14T11:00:33.909Z,1.02
2022-11-14T11:03:19.413Z,1.00
2022-11-14T11:06:04.689Z,1.60
2022-11-14T11:09:08.561Z,1.58
2022-11-14T11:11:59.408Z,1.88
2022-11-14T11:14:46.218Z,1.83
2022-11-14T11:17:37.090Z,2.40
2022-11-14T11:23:26.230Z,1.90
2022-11-14T11:26:29.657Z,2.35
2022-11-14T11:29:19.649Z,2.30
2022-11-14T11:32:05.042Z,2.03
2022-11-14T11:34:51.454Z,1.90
2022-11-14T11:37:49.194Z,1.45
2022-11-14T11:40:34.542Z,1.35
2022-11-14T11:43:39.601Z,1.40
2022-11-14T11:46:44.760Z,1.25
2022-11-14T11:49:53.942Z,1.35
2022-11-14T11:52:54.749Z,1.10
2022-11-14T11:56:09.510Z,1.20
2022-11-14T11:59:17.389Z,1.00
2022-11-14T12:02:17.565Z,0.98
2022-11-14T12:05:03.279Z,1.10
2022-11-14T12:08:06.361Z,1.20
2022-11-14T12:10:53.711Z,1.23
2022-11-14T12:13:50.495Z,0.80
2022-11-14T12:16:59.269Z,1.20
2022-11-14T12:19:59.539Z,1.00
2022-11-14T12:23:07.383Z,0.90
2022-11-14T12:26:26.392Z,0.70
2022-11-14T12:29:46.598Z,1.33
2022-11-14T12:32:39.130Z,1.20
2022-11-14T12:35:30.542Z,0.85
2022-11-14T12:38:19.472Z,0.90
2022-11-14T12:41:07.420Z,1.08
2022-11-14T12:43:53.317Z,0.90
2022-11-14T12:47:07.096Z,0.90
2022-11-14T12:49:52.655Z,1.20
2022-11-14T12:52:40.680Z,1.40
2022-11-14T12:55:25.611Z,1.00
2022-11-14T12:58:17.340Z,1.25
2022-11-14T13:01:20.045Z,1.10
2022-11-14T13:04:42.511Z,0.93
2022-11-14T13:08:05.773Z,0.98
2022-11-14T13:10:51.317Z,1.13
2022-11-14T13:14:18.903Z,1.20
2022-11-14T13:17:35.014Z,1.10
2022-11-14T13:20:51.795Z,1.00
2022-11-14T13:23:43.018Z,1.17
2022-11-14T13:26:27.854Z,1.08
2022-11-14T13:29:41.010Z,1.20
2022-11-14T13:32:41.163Z,0.82
2022-11-14T13:35:33.531Z,1.08
2022-11-14T13:38:53.872Z,0.68
2022-11-14T13:42:30.635Z,0.70
2022-11-14T13:45:29.832Z,1.15
2022-11-14T13:48:26.975Z,0.90
2022-11-14T13:51:41.797Z,0.95
2022-11-14T13:54:21.692Z,0.82
2022-11-14T13:57:25.860Z,1.10
2022-11-14T14:00:20.676Z,1.10
2022-11-14T14:03:25.005Z,0.73
2022-11-14T14:06:42.237Z,1.15
2022-11-14T14:09:48.454Z,0.82
2022-11-14T14:13:16.616Z,1.00
2022-11-14T14:16:23.642Z,0.52
2022-11-14T14:19:51.681Z,0.80
2022-11-14T14:22:55.792Z,0.82
2022-11-14T14:25:49.408Z,0.93
2022-11-14T14:29:10.527Z,1.03
2022-11-14T14:32:10.573Z,0.80
2022-11-14T14:34:58.619Z,0.95
2022-11-14T14:37:51.901Z,0.82
2022-11-14T14:40:40.370Z,0.82
2022-11-14T14:43:33.299Z,1.00
2022-11-14T14:46:33.324Z,0.90
2022-11-14T14:49:24.140Z,0.70
2022-11-14T14:52:29.384Z,0.73
2022-11-14T14:55:38.808Z,0.75
2022-11-14T14:58:26.821Z,0.90
2022-11-14T15:01:32.397Z,0.95
2022-11-14T15:04:20.525Z,1.05
2022-11-14T15:07:05.663Z,0.63
2022-11-14T15:09:59.467Z,0.73
2022-11-14T15:12:45.213Z,0.65
2022-11-14T15:15:31.010Z,0.80
2022-11-14T15:18:25.288Z,1.08
2022-11-14T15:21:23.291Z,0.60
2022-11-14T15:24:20.053Z,0.85
2022-11-14T15:27:11.808Z,0.50
2022-11-14T15:30:02.206Z,1.10
2022-11-14T15:32:52.944Z,0.95
2022-11-14T15:35:39.483Z,0.75
2022-11-14T15:41:33.943Z,0.65
2022-11-14T15:44:33.215Z,0.93
2022-11-14T15:47:36.838Z,1.10
2022-11-14T15:50:28.376Z,0.50
2022-11-14T15:53:25.788Z,0.80
2022-11-14T15:56:13.169Z,0.60
2022-11-14T15:58:58.768Z,0.52
2022-11-14T16:01:46.850Z,0.80
2022-11-14T16:04:35.571Z,0.63
2022-11-14T16:07:21.141Z,0.98
2022-11-14T16:10:14.775Z,0.93
2022-11-14T16:13:00.178Z,1.60
2022-11-14T16:15:45.564Z,1.20
2022-11-14T16:18:30.891Z,1.25
2022-11-14T16:21:18.247Z,1.25
2022-11-14T16:24:04.131Z,1.17
2022-11-14T16:26:50.025Z,0.90
2022-11-14T16:29:35.515Z,1.38
2022-11-14T16:32:20.883Z,1.13
2022-11-14T16:35:13.645Z,1.30
2022-11-14T16:37:58.763Z,1.27
2022-11-14T16:40:44.515Z,1.00
2022-11-14T16:43:29.851Z,0.90
2022-11-14T16:46:15.550Z,1.40
2022-11-14T16:49:00.911Z,1.17
2022-11-14T16:51:50.884Z,1.10
2022-11-14T16:54:36.598Z,1.95
2022-11-14T16:57:22.591Z,0.90
2022-11-14T17:00:10.606Z,0.90
2022-11-14T17:02:55.860Z,1.27
2022-11-14T17:05:49.927Z,1.08
2022-11-14T17:08:35.232Z,1.10
2022-11-14T17:11:20.804Z,1.02
2022-11-14T17:14:05.897Z,1.13
2022-11-14T17:16:51.064Z,1.02
2022-11-14T17:19:38.858Z,1.00
2022-11-14T17:22:24.500Z,1.10
2022-11-14T17:25:10.345Z,0.98
2022-11-14T17:27:55.711Z,1.10
2022-11-14T17:30:41.628Z,1.10
2022-11-14T17:33:26.948Z,1.15
2022-11-14T17:36:12.465Z,1.20
2022-11-14T17:38:58.701Z,1.17
2022-11-14T17:41:44.181Z,0.85
2022-11-14T17:44:29.696Z,1.65
2022-11-14T17:47:15.342Z,1.58
2022-11-14T17:50:00.435Z,1.42
2022-11-14T17:52:45.615Z,0.95
2022-11-14T17:55:31.068Z,1.08
2022-11-14T17:58:16.318Z,1.52
2022-11-14T18:01:01.643Z,0.90
2022-11-14T18:03:47.064Z,0.93
2022-11-14T18:06:33.485Z,1.35
2022-11-14T18:09:18.994Z,1.02
2022-11-14T18:12:04.704Z,1.25
2022-11-14T18:14:49.805Z,1.45
2022-11-14T18:17:35.024Z,1.35
2022-11-14T18:20:20.418Z,1.15
2022-11-14T18:23:05.954Z,0.98
2022-11-14T18:25:51.395Z,0.90
2022-11-14T18:28:37.053Z,1.10
2022-11-14T18:31:22.732Z,1.17
2022-11-14T18:34:07.703Z,1.00
2022-11-14T18:36:53.038Z,1.30
2022-11-14T18:39:38.325Z,1.05
2022-11-14T18:42:23.796Z,1.00
2022-11-14T18:45:09.239Z,0.82
2022-11-14T18:47:54.413Z,0.90
2022-11-14T18:50:39.564Z,1.40
2022-11-14T18:53:24.837Z,1.25
2022-11-14T18:56:12.359Z,1.35
2022-11-14T18:58:57.865Z,1.35
2022-11-14T19:01:43.599Z,1.08
2022-11-14T19:04:28.768Z,1.25
2022-11-14T19:07:15.113Z,1.55
2022-11-14T19:10:00.434Z,1.30
2022-11-14T19:12:48.889Z,1.33
2022-11-14T19:15:34.242Z,1.05
2022-11-14T19:18:19.539Z,1.10
2022-11-14T19:21:06.019Z,1.08
2022-11-14T19:23:51.239Z,1.92
2022-11-14T19:26:36.521Z,1.25
2022-11-14T19:29:21.662Z,1.02
2022-11-14T19:32:07.807Z,0.98
2022-11-14T19:34:52.856Z,0.88
2022-11-14T19:37:38.455Z,1.52
2022-11-14T19:40:23.817Z,0.95
2022-11-14T19:43:11.564Z,1.20
2022-11-14T19:46:02.025Z,1.13
2022-11-14T19:48:48.013Z,1.00
2022-11-14T19:51:33.943Z,1.25
2022-11-14T19:54:19.318Z,1.00
2022-11-14T19:57:04.643Z,1.33
2022-11-14T19:59:50.018Z,1.27
2022-11-14T20:02:39.425Z,1.70
2022-11-14T20:05:24.706Z,1.40
2022-11-14T20:08:09.899Z,0.90
2022-11-14T20:11:02.955Z,1.27
2022-11-14T20:13:49.123Z,0.80
2022-11-14T20:16:36.269Z,2.30
2022-11-14T20:19:21.795Z,2.40
2022-11-14T20:22:07.303Z,1.08
2022-11-14T20:24:52.485Z,1.63
2022-11-14T20:27:38.204Z,1.83
2022-11-14T20:30:24.051Z,1.70
2022-11-14T20:33:09.534Z,2.55
2022-11-14T20:35:54.778Z,1.73
2022-11-14T20:38:40.442Z,2.88
2022-11-14T20:41:25.663Z,3.20
2022-11-14T20:44:10.898Z,2.15
2022-11-14T20:46:56.948Z,2.10
2022-11-14T20:49:43.348Z,1.70
2022-11-14T20:52:28.627Z,1.60
2022-11-14T20:55:15.587Z,1.85
2022-11-14T20:58:00.744Z,2.13
2022-11-14T21:00:46.063Z,2.17
2022-11-14T21:03:31.829Z,1.80
2022-11-14T21:06:17.385Z,1.50
2022-11-14T21:09:02.728Z,2.15
2022-11-14T21:11:47.961Z,1.70
2022-11-14T21:14:34.095Z,2.05
2022-11-14T21:17:19.500Z,1.80
2022-11-14T21:20:05.642Z,1.73
2022-11-14T21:22:50.707Z,1.55
2022-11-14T21:25:36.050Z,1.35
2022-11-14T21:28:21.440Z,2.28
2022-11-14T21:31:46.059Z,1.50
2022-11-14T21:34:31.507Z,1.75
2022-11-14T21:37:16.506Z,1.52
2022-11-14T21:40:01.780Z,1.42
2022-11-14T21:42:47.038Z,1.17
2022-11-14T21:45:32.304Z,1.77
2022-11-14T21:48:17.746Z,1.33
2022-11-14T21:51:15.124Z,1.23
2022-11-14T21:54:02.736Z,1.63
2022-11-14T21:56:48.090Z,1.33
2022-11-14T21:59:33.502Z,1.45
2022-11-14T22:02:47.905Z,1.52
2022-11-14T22:05:33.098Z,0.95
2022-11-14T22:08:18.353Z,1.38
2022-11-14T22:11:03.418Z,1.65
2022-11-14T22:13:49.349Z,1.30
2022-11-14T22:16:35.141Z,1.20
2022-11-14T22:19:20.551Z,1.55
2022-11-14T22:22:05.579Z,1.15
2022-11-14T22:24:50.861Z,1.02
2022-11-14T22:27:36.232Z,1.30
2022-11-14T22:30:21.471Z,1.35
2022-11-14T22:33:07.087Z,1.67
2022-11-14T22:35:52.108Z,1.08
2022-11-14T22:38:38.064Z,1.23
2022-11-14T22:41:33.621Z,0.90
2022-11-14T22:44:19.162Z,0.82
2022-11-14T22:47:04.347Z,0.80
2022-11-14T22:49:49.744Z,0.80
2022-11-14T22:52:34.878Z,0.93
2022-11-14T22:55:20.175Z,0.90
2022-11-14T22:58:05.584Z,0.88
2022-11-14T23:00:51.349Z,0.80
2022-11-14T23:03:37.085Z,0.90
2022-11-14T23:06:23.595Z,0.60
2022-11-14T23:09:09.170Z,0.90
2022-11-14T23:11:54.423Z,0.65
2022-11-14T23:14:39.637Z,0.70
2022-11-14T23:17:25.069Z,0.73
2022-11-14T23:20:16.049Z,0.90
2022-11-14T23:23:02.008Z,0.40
2022-11-14T23:25:47.169Z,0.70
2022-11-14T23:28:32.888Z,1.08
2022-11-14T23:31:19.040Z,0.75
2022-11-14T23:34:04.054Z,1.20
2022-11-14T23:36:49.279Z,0.75
2022-11-14T23:39:34.663Z,0.70
2022-11-14T23:42:19.957Z,0.73
2022-11-14T23:45:05.588Z,1.00
2022-11-14T23:47:50.760Z,0.80
2022-11-14T23:50:36.073Z,1.10
2022-11-14T23:53:22.215Z,0.63
2022-11-14T23:56:10.751Z,0.60
2022-11-14T23:58:55.750Z,0.98
